Time;durP1;ratioP1;P1;durP2;ratioP2;P2;SDS_P1;SDS_P2;PMS_P1;PMS_P2;Temp;Humidity;BMP_temperature;BMP_pressure;BME280_temperature;BME280_humidity;BME280_pressure;Samples;Min_cycle;Max_cycle;Signal;HPM_P1;HPM_P2
2021/11/03 00:01:31;;;;;;;646.55;23.52;;;;;;;6.04;69.40;98531.34;10388402;28;20045;-63
2021/11/03 00:06:33;;;;;;;445.17;18.88;;;;;;;5.83;69.54;98527.53;10388660;28;20049;-64
2021/11/03 00:11:36;;;;;;;228.57;10.98;;;;;;;5.57;70.07;98508.38;10387050;28;20055;-64
2021/11/03 00:16:37;;;;;;;83.10;9.77;;;;;;;5.70;70.30;98505.03;10388404;28;20056;-63
2021/11/03 00:21:39;;;;;;;715.40;22.13;;;;;;;5.93;70.14;98504.41;10389360;28;20549;-64
2021/11/03 00:26:41;;;;;;;35.55;9.82;;;;;;;6.10;69.88;98506.78;10388539;28;20133;-63
2021/11/03 00:31:43;;;;;;;223.73;14.23;;;;;;;6.21;69.34;98496.53;10388569;28;20545;-63
2021/11/03 00:36:45;;;;;;;385.40;14.43;;;;;;;6.05;69.46;98488.91;10387289;28;20455;-63
2021/11/03 00:41:46;;;;;;;216.50;14.52;;;;;;;6.02;69.51;98485.69;10387830;28;20056;-63
2021/11/03 00:46:49;;;;;;;346.33;18.98;;;;;;;5.80;69.38;98488.78;10381403;28;20151;-64
2021/11/03 00:51:51;;;;;;;205.52;15.68;;;;;;;5.72;69.80;98488.44;10386196;28;20052;-64
2021/11/03 00:56:53;;;;;;;257.45;16.58;;;;;;;5.90;69.56;98482.09;10385609;28;20046;-64
2021/11/03 01:01:55;;;;;;;495.05;20.67;;;;;;;6.08;69.27;98480.91;10386549;28;20124;-64
2021/11/03 01:06:57;;;;;;;473.00;18.48;;;;;;;6.23;69.30;98482.53;10385381;28;20063;-64
2021/11/03 01:11:58;;;;;;;478.30;20.95;;;;;;;6.29;68.81;98469.16;10387512;28;20055;-65
2021/11/03 01:17:01;;;;;;;248.82;14.55;;;;;;;6.26;69.04;98474.56;10384799;28;20057;-63
2021/11/03 01:22:03;;;;;;;299.35;16.95;;;;;;;6.28;69.06;98462.34;10387515;28;20061;-63
2021/11/03 01:27:05;;;;;;;494.77;21.45;;;;;;;6.30;68.85;98444.88;10386527;28;20038;-63
2021/11/03 01:32:07;;;;;;;213.43;13.55;;;;;;;6.17;69.08;98436.19;10387120;28;20390;-64
2021/11/03 01:37:09;;;;;;;173.90;13.32;;;;;;;6.18;69.10;98431.84;10386661;28;20152;-63
2021/11/03 01:42:11;;;;;;;112.30;11.70;;;;;;;6.24;68.82;98431.44;10385519;28;20136;-63
2021/11/03 01:47:46;;;;;;;143.77;11.18;;;;;;;6.17;68.72;98428.41;10386796;28;20655;-63
2021/11/03 01:52:52;;;;;;;408.88;18.25;;;;;;;6.07;69.08;98419.56;10385780;28;20059;-63
2021/11/03 01:58:00;;;;;;;129.38;8.63;;;;;;;5.98;68.92;98401.97;10385311;28;20049;-64
2021/11/03 02:03:13;;;;;;;104.30;13.45;;;;;;;5.99;69.25;98421.81;10386074;28;20417;-63
2021/11/03 02:08:17;;;;;;;183.38;13.40;;;;;;;6.13;68.96;98413.97;10384190;28;20047;-63
2021/11/03 02:13:19;;;;;;;252.18;18.13;;;;;;;6.26;68.72;98394.09;10385308;28;20075;-63
2021/11/03 02:18:22;;;;;;;31.67;11.65;;;;;;;6.31;68.69;98399.81;10384479;28;20053;-64
2021/11/03 02:23:40;;;;;;;56.33;9.95;;;;;;;6.29;68.75;98393.88;10383654;28;20060;-63
2021/11/03 02:28:46;;;;;;;19.27;10.57;;;;;;;6.34;68.85;98396.19;10383236;28;20049;-63
2021/11/03 02:33:48;;;;;;;48.55;13.15;;;;;;;6.47;68.56;98398.78;10384786;28;20049;-63
2021/11/03 02:38:49;;;;;;;17.35;10.85;;;;;;;6.59;68.55;98391.00;10383638;28;20053;-63
2021/11/03 02:44:01;;;;;;;34.13;11.60;;;;;;;6.67;68.55;98380.94;10384362;28;20046;-63
2021/11/03 02:49:04;;;;;;;149.70;18.92;;;;;;;6.75;68.37;98383.81;10383786;28;20457;-63
2021/11/03 02:54:12;;;;;;;42.50;12.70;;;;;;;6.55;68.85;98373.94;10383586;28;20212;-64
2021/11/03 02:59:16;;;;;;;28.63;10.57;;;;;;;6.49;69.05;98381.34;10384419;28;20070;-63
2021/11/03 03:04:30;;;;;;;40.03;15.68;;;;;;;6.59;68.77;98384.97;10388976;28;20053;-63
2021/11/03 03:09:32;;;;;;;62.72;16.50;;;;;;;6.57;68.68;98381.66;10390976;28;20258;-63
2021/11/03 03:14:37;;;;;;;57.90;16.02;;;;;;;6.67;69.03;98395.66;10390372;28;20064;-63
2021/11/03 03:19:41;;;;;;;124.63;15.68;;;;;;;6.53;69.00;98398.38;10394727;28;20053;-65
2021/11/03 03:24:46;;;;;;;68.20;15.32;;;;;;;6.50;69.48;98403.75;10397713;28;20045;-64
2021/11/03 03:29:48;;;;;;;112.60;14.43;;;;;;;6.44;69.39;98401.56;10399220;28;20087;-64
2021/11/03 03:34:49;;;;;;;33.72;12.82;;;;;;;6.27;69.91;98395.75;10399773;28;20706;-64
2021/11/03 03:39:51;;;;;;;483.02;20.88;;;;;;;6.32;69.63;98398.88;10397895;28;20050;-64
2021/11/03 03:44:53;;;;;;;106.85;18.27;;;;;;;6.32;69.73;98405.84;10399959;28;20457;-64
2021/11/03 03:49:54;;;;;;;49.97;17.25;;;;;;;6.24;69.69;98403.72;10399953;28;20059;-64
2021/11/03 03:54:56;;;;;;;50.13;17.05;;;;;;;6.20;70.05;98396.22;10397894;28;20506;-64
2021/11/03 04:00:06;;;;;;;30.55;14.52;;;;;;;6.22;70.02;98395.22;10398985;28;20402;-65
2021/11/03 04:05:08;;;;;;;36.47;13.95;;;;;;;6.17;70.04;98391.22;10393783;28;20052;-64
2021/11/03 04:10:11;;;;;;;27.55;15.40;;;;;;;6.18;69.95;98393.75;10393644;28;20152;-64
2021/11/03 04:15:13;;;;;;;18.33;12.18;;;;;;;6.13;70.06;98382.81;10390680;28;20068;-63
2021/11/03 04:20:16;;;;;;;18.65;11.55;;;;;;;6.23;69.84;98386.47;10391789;28;20059;-64
2021/11/03 04:25:18;;;;;;;20.77;13.18;;;;;;;6.17;69.86;98379.09;10391290;28;20497;-64
2021/11/03 04:30:25;;;;;;;18.27;12.00;;;;;;;6.11;70.01;98384.69;10390788;28;20056;-64
2021/11/03 04:35:27;;;;;;;22.70;13.63;;;;;;;6.21;70.01;98388.34;10390725;28;20053;-64
2021/11/03 04:40:29;;;;;;;17.67;12.02;;;;;;;6.23;69.68;98386.47;10390942;28;20089;-64
2021/11/03 04:45:31;;;;;;;12.50;9.98;;;;;;;6.17;69.68;98371.31;10389941;28;20052;-63
2021/11/03 04:50:34;;;;;;;16.88;11.45;;;;;;;6.27;69.79;98372.38;10390449;28;20650;-64
2021/11/03 04:55:36;;;;;;;14.45;10.93;;;;;;;6.46;69.38;98368.53;10390249;28;20053;-64
2021/11/03 05:00:38;;;;;;;24.08;13.88;;;;;;;6.45;69.28;98359.91;10389965;28;20148;-64
2021/11/03 05:05:40;;;;;;;23.88;13.23;;;;;;;6.48;69.10;98371.88;10388448;28;20156;-64
2021/11/03 05:10:42;;;;;;;15.35;11.00;;;;;;;6.44;69.10;98368.66;10389679;28;20084;-63
2021/11/03 05:15:44;;;;;;;24.60;13.05;;;;;;;6.44;69.11;98358.28;10389305;28;20080;-64
2021/11/03 05:20:46;;;;;;;18.05;11.63;;;;;;;6.36;69.52;98357.97;10389416;28;20053;-64
2021/11/03 05:25:48;;;;;;;22.65;12.82;;;;;;;6.55;69.04;98353.16;10388810;28;20208;-64
2021/11/03 05:30:50;;;;;;;16.02;11.38;;;;;;;6.43;69.19;98355.78;10388369;28;20409;-64
2021/11/03 05:35:51;;;;;;;16.33;10.98;;;;;;;6.46;69.16;98358.16;10388064;28;20103;-64
2021/11/03 05:40:54;;;;;;;15.80;11.30;;;;;;;6.58;68.70;98354.72;10387559;28;20528;-65
2021/11/03 05:45:55;;;;;;;17.00;10.32;;;;;;;6.52;68.94;98343.00;10387298;28;20138;-65
2021/11/03 05:50:57;;;;;;;16.15;10.93;;;;;;;6.48;68.99;98335.50;10388094;28;20490;-64
2021/11/03 05:55:59;;;;;;;21.10;11.57;;;;;;;6.49;68.98;98329.41;10386076;28;20500;-63
2021/11/03 06:01:01;;;;;;;17.42;11.40;;;;;;;6.50;69.12;98326.69;10387057;28;20536;-63
2021/11/03 06:06:03;;;;;;;15.95;10.13;;;;;;;6.55;68.74;98313.41;10386846;28;20100;-62
2021/11/03 06:11:06;;;;;;;20.27;11.23;;;;;;;6.46;69.00;98314.84;10386379;28;20413;-63
2021/11/03 06:16:09;;;;;;;19.92;11.80;;;;;;;6.38;69.31;98311.13;10386153;28;20062;-63
2021/11/03 06:21:11;;;;;;;18.60;10.98;;;;;;;6.44;69.38;98302.91;10386756;28;20077;-63
2021/11/03 06:26:17;;;;;;;18.88;10.82;;;;;;;6.51;69.21;98304.16;10386268;28;20591;-64
2021/11/03 06:31:19;;;;;;;22.45;12.65;;;;;;;6.55;69.10;98297.81;10386589;28;20097;-63
2021/11/03 06:36:26;;;;;;;23.25;12.73;;;;;;;6.68;69.07;98291.66;10385984;28;20049;-63
2021/11/03 06:41:28;;;;;;;26.13;11.95;;;;;;;6.67;69.01;98278.78;10386314;28;20056;-63
2021/11/03 06:46:30;;;;;;;27.08;13.98;;;;;;;6.79;69.00;98270.13;10385191;28;20053;-63
2021/11/03 06:51:33;;;;;;;35.88;16.15;;;;;;;6.96;68.89;98265.38;10385595;28;20374;-63
2021/11/03 06:56:35;;;;;;;27.90;15.52;;;;;;;6.89;68.39;98271.97;10385758;28;20474;-63
2021/11/03 07:01:37;;;;;;;29.15;15.65;;;;;;;6.72;69.07;98276.66;10385610;28;20053;-63
2021/11/03 07:06:39;;;;;;;32.47;16.48;;;;;;;6.64;69.22;98266.81;10384969;28;20053;-63
2021/11/03 07:11:42;;;;;;;39.75;19.45;;;;;;;6.53;69.75;98271.13;10384932;28;20409;-63
2021/11/03 07:16:43;;;;;;;26.48;15.63;;;;;;;6.72;69.63;98274.06;10384440;28;20057;-63
2021/11/03 07:21:45;;;;;;;45.97;20.35;;;;;;;6.94;69.27;98275.03;10385287;28;20060;-63
2021/11/03 07:26:47;;;;;;;31.88;18.38;;;;;;;7.00;69.14;98272.00;10384916;28;20669;-63
2021/11/03 07:31:49;;;;;;;30.98;17.77;;;;;;;7.09;69.01;98286.13;10385000;28;20045;-63
2021/11/03 07:36:51;;;;;;;47.55;21.90;;;;;;;7.15;69.06;98291.72;10383998;28;20524;-63
2021/11/03 07:41:53;;;;;;;44.65;21.17;;;;;;;7.20;68.93;98270.59;10384763;28;20095;-63
2021/11/03 07:46:54;;;;;;;37.97;20.33;;;;;;;7.16;69.02;98269.97;10383049;28;20047;-63
2021/11/03 07:51:56;;;;;;;29.45;17.02;;;;;;;7.11;68.99;98277.28;10385435;28;20056;-63
2021/11/03 07:56:58;;;;;;;37.65;18.88;;;;;;;6.98;69.46;98271.28;10384103;28;20049;-62
2021/11/03 08:02:00;;;;;;;36.55;19.52;;;;;;;6.92;69.62;98265.69;10382613;28;20054;-63
2021/11/03 08:07:03;;;;;;;24.85;16.02;;;;;;;6.93;69.69;98267.38;10390494;28;20046;-62
2021/11/03 08:12:10;;;;;;;29.73;16.42;;;;;;;6.99;69.72;98264.34;10391316;28;20057;-62
2021/11/03 08:17:16;;;;;;;25.10;15.57;;;;;;;6.94;70.06;98261.22;10389880;28;20452;-62
2021/11/03 08:22:23;;;;;;;31.38;17.48;;;;;;;6.98;69.96;98255.69;10390651;28;20049;-62
2021/11/03 08:27:26;;;;;;;37.65;18.63;;;;;;;7.12;69.89;98258.13;10390638;28;20053;-63
2021/11/03 08:32:32;;;;;;;28.50;16.27;;;;;;;7.21;69.64;98261.84;10384229;28;20073;-63
2021/11/03 08:37:38;;;;;;;29.73;17.13;;;;;;;7.17;69.97;98255.22;10389759;28;20084;-62
2021/11/03 08:42:40;;;;;;;29.40;16.67;;;;;;;7.20;70.03;98255.00;10385432;28;20095;-63
2021/11/03 08:47:42;;;;;;;36.25;17.85;;;;;;;7.42;69.81;98249.88;10389669;28;20050;-62
2021/11/03 08:52:45;;;;;;;30.65;16.92;;;;;;;7.49;69.48;98250.28;10389621;28;20057;-62
2021/11/03 08:57:46;;;;;;;31.42;16.80;;;;;;;7.61;69.57;98244.16;10388948;28;20563;-70
2021/11/03 09:02:52;;;;;;;26.00;14.50;;;;;;;7.87;69.08;98233.47;10387226;28;20231;-70
2021/11/03 09:07:55;;;;;;;29.92;15.20;;;;;;;7.84;68.96;98231.06;10388837;28;20057;-70
2021/11/03 09:12:57;;;;;;;20.58;13.82;;;;;;;7.77;68.96;98237.66;10388526;28;20049;-70
2021/11/03 09:17:59;;;;;;;19.63;13.52;;;;;;;7.63;69.11;98243.09;10387919;28;20053;-70
2021/11/03 09:23:01;;;;;;;22.48;15.20;;;;;;;7.54;69.45;98246.38;10388731;28;20600;-70
2021/11/03 09:28:04;;;;;;;21.80;13.98;;;;;;;7.59;69.53;98240.84;10388305;28;20049;-70
2021/11/03 09:33:07;;;;;;;22.80;13.70;;;;;;;7.53;69.54;98242.09;10388094;28;20548;-70
2021/11/03 09:38:12;;;;;;;27.42;15.45;;;;;;;7.55;69.80;98240.22;10387119;28;20045;-70
2021/11/03 09:43:35;;;;;;;29.38;15.50;;;;;;;7.45;70.37;98239.25;10386634;28;20083;-69
2021/11/03 09:48:36;;;;;;;23.98;14.27;;;;;;;7.62;69.83;98238.84;10388273;28;20228;-70
2021/11/03 09:53:53;;;;;;;21.55;13.07;;;;;;;7.62;69.92;98243.19;10388217;28;20053;-70
2021/11/03 09:59:24;;;;;;;23.75;14.63;;;;;;;7.73;70.08;98245.84;10387514;28;20553;-70
2021/11/03 10:04:57;;;;;;;25.52;14.45;;;;;;;7.96;69.80;98237.13;10386462;28;20507;-70
2021/11/03 10:10:29;;;;;;;19.17;10.00;;;;;;;7.96;69.26;98239.72;10377419;28;20152;-70
2021/11/03 10:15:31;;;;;;;14.57;10.35;;;;;;;7.96;69.48;98230.16;10386946;28;20139;-70
2021/11/03 10:20:41;;;;;;;20.15;12.50;;;;;;;8.03;69.54;98239.16;10386164;28;20052;-70
2021/11/03 10:25:58;;;;;;;16.75;10.48;;;;;;;8.03;69.61;98241.75;10386263;28;20375;-70
2021/11/03 10:31:00;;;;;;;14.57;9.07;;;;;;;8.14;69.47;98237.53;10386513;28;20064;-70
2021/11/03 10:36:16;;;;;;;16.52;9.65;;;;;;;8.27;69.37;98238.25;10386326;28;20050;-70
2021/11/03 10:41:26;;;;;;;16.23;10.90;;;;;;;8.33;69.62;98240.38;10384723;28;20057;-70
2021/11/03 10:46:31;;;;;;;27.48;14.55;;;;;;;8.52;69.55;98228.44;10386017;28;20056;-70
2021/11/03 10:51:39;;;;;;;16.20;10.70;;;;;;;8.72;69.19;98225.06;10385493;28;20045;-69
2021/11/03 10:57:14;;;;;;;13.55;8.98;;;;;;;8.66;68.70;98227.31;10385822;28;20048;-70
2021/11/03 11:02:22;;;;;;;13.88;9.35;;;;;;;8.56;69.57;98224.63;10386005;28;20501;-70
2021/11/03 11:07:38;;;;;;;13.50;8.80;;;;;;;8.56;69.13;98222.03;10385351;28;20046;-70
2021/11/03 11:12:42;;;;;;;19.15;11.18;;;;;;;8.61;69.37;98217.25;10385389;28;20049;-70
2021/11/03 11:18:00;;;;;;;21.38;12.32;;;;;;;8.61;69.58;98214.66;10385225;28;20160;-70
2021/11/03 11:23:35;;;;;;;12.80;9.35;;;;;;;8.60;69.08;98220.84;10384607;28;20057;-70
2021/11/03 11:28:45;;;;;;;16.13;10.35;;;;;;;8.55;69.79;98209.09;10385296;28;20053;-70
2021/11/03 11:33:53;;;;;;;15.68;10.80;;;;;;;8.48;70.08;98205.31;10384258;28;20409;-69
2021/11/03 11:39:13;;;;;;;12.75;8.30;;;;;;;8.50;70.46;98206.88;10386020;28;20053;-70
2021/11/03 11:44:17;;;;;;;12.05;7.65;;;;;;;8.76;69.82;98216.06;10392488;28;20111;-70
2021/11/03 11:49:26;;;;;;;15.60;10.48;;;;;;;8.79;69.62;98210.59;10392896;28;20046;-70
2021/11/03 11:54:36;;;;;;;11.30;7.07;;;;;;;8.87;69.32;98209.16;10391279;28;20049;-71
2021/11/03 11:59:57;;;;;;;10.25;7.68;;;;;;;8.68;69.60;98201.97;10391120;28;20060;-70
2021/11/03 12:05:20;;;;;;;9.57;6.23;;;;;;;8.53;69.86;98203.19;10392222;28;20057;-70
2021/11/03 12:10:29;;;;;;;8.15;5.53;;;;;;;8.44;70.07;98202.16;10391501;28;20132;-70
2021/11/03 12:15:49;;;;;;;7.70;6.18;;;;;;;8.41;70.16;98198.94;10391316;28;20061;-70
2021/11/03 12:21:31;;;;;;;7.47;5.88;;;;;;;8.42;70.25;98198.00;10391371;28;20053;-71
2021/11/03 12:26:40;;;;;;;12.90;8.02;;;;;;;8.51;70.34;98190.28;10390848;28;20056;-71
2021/11/03 12:31:50;;;;;;;7.15;5.22;;;;;;;8.58;70.02;98195.84;10390833;28;20482;-70
2021/11/03 12:36:54;;;;;;;7.88;5.78;;;;;;;8.68;69.98;98188.94;10390114;28;20088;-71
2021/11/03 12:42:00;;;;;;;10.73;6.25;;;;;;;8.76;70.02;98190.00;10389877;28;20148;-70
2021/11/03 12:47:02;;;;;;;6.72;5.28;;;;;;;8.78;69.88;98189.88;10391294;28;20322;-70
2021/11/03 12:52:10;;;;;;;10.45;7.53;;;;;;;8.83;70.26;98185.94;10387543;28;20498;-70
2021/11/03 12:57:27;;;;;;;13.70;8.48;;;;;;;8.80;70.40;98178.38;10390067;28;20421;-70
2021/11/03 13:02:39;;;;;;;11.43;8.02;;;;;;;8.95;70.33;98181.53;10390423;28;20061;-71
2021/11/03 13:07:41;;;;;;;11.48;7.50;;;;;;;9.14;69.89;98188.66;10389619;28;20418;-71
2021/11/03 13:13:00;;;;;;;13.10;8.18;;;;;;;9.32;69.65;98172.34;10388796;28;20409;-71
2021/11/03 13:18:32;;;;;;;14.70;9.60;;;;;;;9.33;69.20;98171.41;10389652;28;20057;-71
2021/11/03 13:23:37;;;;;;;15.93;10.45;;;;;;;9.39;69.54;98170.91;10388201;28;20045;-71
2021/11/03 13:28:44;;;;;;;15.25;10.73;;;;;;;9.44;69.48;98168.72;10388999;28;20049;-71
2021/11/03 13:34:21;;;;;;;17.95;12.00;;;;;;;9.48;69.27;98177.94;10388622;28;20301;-71
2021/11/03 13:39:28;;;;;;;15.15;11.57;;;;;;;9.59;69.29;98172.69;10376192;28;20091;-70
2021/11/03 13:44:30;;;;;;;22.05;14.50;;;;;;;9.75;68.98;98180.06;10388185;28;20053;-71
2021/11/03 13:49:40;;;;;;;32.53;23.65;;;;;;;9.89;68.92;98173.72;10387469;28;20068;-70
2021/11/03 13:54:55;;;;;;;29.02;22.75;;;;;;;9.86;68.82;98185.22;10386596;28;20049;-71
2021/11/03 14:00:00;;;;;;;11.68;10.20;;;;;;;9.92;68.63;98183.88;10386546;28;20129;-70
2021/11/03 14:05:30;;;;;;;8.90;7.00;;;;;;;9.82;68.34;98180.41;10386379;28;20418;-70
2021/11/03 14:10:33;;;;;;;9.95;7.82;;;;;;;9.75;68.42;98187.09;10386657;28;20549;-70
2021/11/03 14:15:37;;;;;;;9.82;6.90;;;;;;;9.64;68.65;98180.97;10387599;28;20045;-70
2021/11/03 14:20:53;;;;;;;9.55;7.60;;;;;;;9.38;69.12;98192.72;10386224;28;20041;-70
2021/11/03 14:25:55;;;;;;;9.07;5.18;;;;;;;9.56;69.26;98185.16;10384007;28;20612;-69
2021/11/03 14:31:00;;;;;;;8.77;7.32;;;;;;;9.47;68.59;98186.75;10381517;28;20060;-68
2021/11/03 14:36:13;;;;;;;10.82;7.72;;;;;;;9.45;68.86;98186.03;10384597;28;20060;-68
2021/11/03 14:41:19;;;;;;;7.53;6.60;;;;;;;9.41;68.75;98182.03;10373697;28;20053;-68
2021/11/03 14:46:29;;;;;;;12.80;8.45;;;;;;;9.49;68.87;98184.84;10380803;28;20041;-68
2021/11/03 14:51:30;;;;;;;8.95;7.85;;;;;;;9.45;68.81;98188.66;10379737;28;20060;-68
2021/11/03 14:56:32;;;;;;;11.85;7.65;;;;;;;9.46;68.75;98189.50;10382167;28;20037;-69
2021/11/03 15:01:37;;;;;;;9.57;7.60;;;;;;;9.45;68.91;98188.66;10383324;28;20065;-68
2021/11/03 15:06:39;;;;;;;9.98;8.70;;;;;;;9.33;69.10;98187.06;10383598;28;20573;-68
2021/11/03 15:11:41;;;;;;;9.05;8.02;;;;;;;9.22;69.46;98179.28;10384196;28;20056;-68
2021/11/03 15:16:43;;;;;;;8.40;7.30;;;;;;;9.38;69.21;98195.31;10388108;28;20667;-68
2021/11/03 15:21:45;;;;;;;10.88;8.57;;;;;;;9.35;69.47;98202.56;10392699;28;20172;-68
2021/11/03 15:26:47;;;;;;;12.57;10.15;;;;;;;9.38;69.26;98203.16;10391395;28;20421;-68
2021/11/03 15:31:49;;;;;;;14.20;11.57;;;;;;;9.30;69.69;98204.75;10391610;28;20053;-68
2021/11/03 15:36:52;;;;;;;13.35;11.55;;;;;;;9.30;69.75;98208.16;10391861;28;20050;-68
2021/11/03 15:41:57;;;;;;;9.27;8.10;;;;;;;9.36;69.42;98207.66;10391435;28;20489;-68
2021/11/03 15:46:59;;;;;;;8.95;8.05;;;;;;;9.37;69.40;98208.50;10391054;28;20046;-68
2021/11/03 15:52:05;;;;;;;10.38;9.27;;;;;;;9.41;69.15;98207.28;10391779;28;20041;-69
2021/11/03 15:57:07;;;;;;;10.48;9.23;;;;;;;9.33;69.27;98210.53;10388436;28;20049;-69
2021/11/03 16:02:18;;;;;;;11.52;9.15;;;;;;;9.33;69.32;98215.75;10389210;28;20140;-68
2021/11/03 16:07:22;;;;;;;13.35;10.05;;;;;;;9.34;69.07;98217.41;10389061;28;20053;-68
2021/11/03 16:12:24;;;;;;;13.45;12.05;;;;;;;9.19;69.35;98208.22;10390464;28;20553;-68
2021/11/03 16:17:26;;;;;;;22.08;15.85;;;;;;;9.07;69.85;98213.59;10390279;28;20089;-68
2021/11/03 16:22:39;;;;;;;21.35;16.02;;;;;;;9.01;70.33;98219.31;10389703;28;20049;-68
2021/11/03 16:27:40;;;;;;;19.85;14.38;;;;;;;9.03;69.92;98230.44;10386680;28;20240;-68
2021/11/03 16:32:42;;;;;;;18.58;13.98;;;;;;;8.97;70.09;98228.34;10388959;28;20041;-68
2021/11/03 16:37:45;;;;;;;16.23;14.52;;;;;;;8.98;69.99;98232.59;10389863;28;20053;-68
2021/11/03 16:42:48;;;;;;;19.85;17.58;;;;;;;8.94;70.10;98229.41;10389682;28;20077;-68
2021/11/03 16:47:53;;;;;;;26.77;20.05;;;;;;;8.91;70.27;98234.03;10388862;28;20128;-68
2021/11/03 16:52:57;;;;;;;29.60;21.45;;;;;;;8.90;70.50;98240.19;10389184;28;20048;-68
2021/11/03 16:57:59;;;;;;;18.25;16.27;;;;;;;8.91;70.42;98244.47;10386907;28;20542;-69
2021/11/03 17:03:01;;;;;;;28.52;20.95;;;;;;;8.88;70.65;98250.75;10388725;28;20045;-68
2021/11/03 17:08:32;;;;;;;23.65;19.25;;;;;;;9.00;70.69;98259.34;10388416;28;20459;-69
2021/11/03 17:13:56;;;;;;;30.15;21.67;;;;;;;9.07;70.43;98252.72;10386458;28;20058;-69
2021/11/03 17:18:58;;;;;;;23.70;20.85;;;;;;;9.12;70.31;98258.38;10387373;28;20073;-63
2021/11/03 17:24:00;;;;;;;62.03;29.27;;;;;;;9.24;70.17;98273.06;10387618;28;20500;-62
2021/11/03 17:29:19;;;;;;;43.85;27.77;;;;;;;9.21;70.15;98275.91;10386609;28;20049;-63
2021/11/03 17:34:21;;;;;;;57.83;30.27;;;;;;;9.29;69.79;98284.78;10382393;28;20366;-63
2021/11/03 17:39:23;;;;;;;23.63;19.83;;;;;;;9.16;69.89;98283.25;10383235;28;20661;-63
2021/11/03 17:44:44;;;;;;;24.45;20.45;;;;;;;9.06;70.20;98293.59;10381032;28;20057;-63
2021/11/03 17:49:52;;;;;;;24.92;18.77;;;;;;;9.17;69.94;98295.38;10383067;28;20049;-63
2021/11/03 17:54:54;;;;;;;46.42;25.80;;;;;;;9.22;69.72;98299.25;10382363;28;20045;-62
2021/11/03 17:59:56;;;;;;;36.58;22.83;;;;;;;9.06;69.97;98311.03;10382390;28;20063;-63
2021/11/03 18:04:58;;;;;;;29.73;22.55;;;;;;;8.97;70.27;98302.19;10382472;28;20053;-62
2021/11/03 18:10:08;;;;;;;35.63;23.83;;;;;;;9.02;70.37;98301.78;10384876;28;20410;-63
2021/11/03 18:15:17;;;;;;;36.85;24.25;;;;;;;9.17;70.10;98309.25;10382692;28;20417;-63
2021/11/03 18:20:23;;;;;;;36.35;24.25;;;;;;;9.27;69.71;98306.72;10382405;28;20056;-62
2021/11/03 18:25:26;;;;;;;61.00;30.50;;;;;;;9.30;69.59;98315.13;10383138;28;20053;-63
2021/11/03 18:30:33;;;;;;;39.03;24.05;;;;;;;9.17;69.84;98319.69;10383664;28;20041;-63
2021/11/03 18:35:35;;;;;;;53.33;27.95;;;;;;;9.24;69.62;98322.63;10383081;28;20063;-63
2021/11/03 18:40:39;;;;;;;117.38;26.23;;;;;;;9.25;69.56;98319.06;10384230;28;20049;-63
2021/11/03 18:45:40;;;;;;;72.97;20.77;;;;;;;9.17;69.62;98319.69;10384342;28;20067;-63
2021/11/03 18:50:46;;;;;;;43.88;13.95;;;;;;;9.12;69.76;98311.38;10383299;28;20055;-63
2021/11/03 18:55:51;;;;;;;38.05;15.98;;;;;;;9.12;69.47;98311.38;10380193;28;20061;-63
2021/11/03 19:00:56;;;;;;;28.15;16.98;;;;;;;9.07;69.33;98326.56;10384552;28;20052;-63
2021/11/03 19:06:26;;;;;;;53.85;23.58;;;;;;;8.82;69.63;98311.19;10384238;28;20068;-62
2021/11/03 19:11:29;;;;;;;74.32;33.53;;;;;;;8.71;69.95;98321.59;10382909;28;20049;-62
2021/11/03 19:16:32;;;;;;;50.78;23.85;;;;;;;8.80;69.99;98319.13;10382788;28;20056;-62
2021/11/03 19:21:34;;;;;;;32.03;21.95;;;;;;;8.87;69.85;98324.69;10383337;28;20410;-62
2021/11/03 19:26:36;;;;;;;41.20;25.40;;;;;;;8.98;69.69;98332.50;10382806;28;20064;-63
2021/11/03 19:31:38;;;;;;;34.28;24.77;;;;;;;9.07;69.52;98339.59;10383217;28;20059;-62
2021/11/03 19:36:42;;;;;;;68.38;34.75;;;;;;;9.10;69.51;98335.91;10381971;28;20049;-63
2021/11/03 19:41:45;;;;;;;61.90;31.80;;;;;;;9.03;69.57;98340.81;10383083;28;20720;-62
2021/11/03 19:46:53;;;;;;;51.58;28.13;;;;;;;9.09;69.66;98347.31;10384161;28;20050;-62
2021/11/03 19:51:59;;;;;;;71.78;32.78;;;;;;;9.14;69.26;98343.38;10382896;28;20056;-62
2021/11/03 19:57:05;;;;;;;39.83;25.73;;;;;;;9.04;69.49;98350.28;10383856;28;20064;-63
2021/11/03 20:02:07;;;;;;;41.20;24.63;;;;;;;8.92;69.83;98353.00;10387992;28;20413;-62
2021/11/03 20:07:21;;;;;;;63.65;30.25;;;;;;;9.06;69.82;98363.19;10391354;28;20045;-62
2021/11/03 20:12:23;;;;;;;50.85;27.02;;;;;;;9.17;69.30;98366.63;10390405;28;20124;-63
2021/11/03 20:17:29;;;;;;;68.57;31.45;;;;;;;9.26;69.31;98370.28;10390832;28;20060;-63
2021/11/03 20:22:34;;;;;;;61.65;29.60;;;;;;;9.26;69.04;98385.94;10388241;28;20060;-63
2021/11/03 20:27:40;;;;;;;57.65;27.75;;;;;;;9.25;69.17;98394.72;10388799;28;20424;-63
2021/11/03 20:32:49;;;;;;;51.80;27.08;;;;;;;9.28;69.06;98389.25;10388146;28;20144;-63
2021/11/03 20:37:57;;;;;;;197.38;39.85;;;;;;;9.18;69.22;98393.53;10389147;28;20065;-63
2021/11/03 20:42:59;;;;;;;71.18;32.75;;;;;;;9.18;69.23;98403.97;10388542;28;20699;-63
2021/11/03 20:48:07;;;;;;;65.82;29.80;;;;;;;9.14;69.21;98408.56;10388560;28;20099;-63
2021/11/03 20:53:16;;;;;;;45.60;24.40;;;;;;;9.13;69.34;98406.94;10387673;28;20045;-62
2021/11/03 20:58:18;;;;;;;65.03;29.00;;;;;;;9.15;69.23;98404.19;10388021;28;20212;-63
2021/11/03 21:03:22;;;;;;;68.93;30.80;;;;;;;9.04;69.51;98409.41;10388235;28;20057;-63
2021/11/03 21:08:24;;;;;;;92.32;33.90;;;;;;;9.05;69.43;98413.69;10388381;28;20133;-63
2021/11/03 21:13:26;;;;;;;65.47;27.90;;;;;;;8.93;69.60;98412.88;10387886;28;20060;-63
2021/11/03 21:18:45;;;;;;;124.80;34.28;;;;;;;8.95;69.57;98413.56;10387209;28;20084;-63
2021/11/03 21:23:47;;;;;;;56.55;26.30;;;;;;;8.99;69.57;98415.00;10386654;28;20458;-62
2021/11/03 21:28:49;;;;;;;82.47;29.88;;;;;;;9.03;69.46;98410.38;10387885;28;20402;-63
2021/11/03 21:33:53;;;;;;;107.32;31.48;;;;;;;9.04;69.23;98398.97;10386594;28;20508;-61
2021/11/03 21:38:55;;;;;;;85.68;29.05;;;;;;;8.97;69.09;98410.84;10387356;28;20045;-62
2021/11/03 21:43:56;;;;;;;82.03;28.77;;;;;;;8.92;69.13;98403.38;10367523;28;20050;-63
2021/11/03 21:48:58;;;;;;;60.10;25.88;;;;;;;8.80;69.17;98397.34;10386768;28;20288;-62
2021/11/03 21:54:00;;;;;;;63.53;25.05;;;;;;;8.67;69.12;98406.19;10386158;28;20512;-62
2021/11/03 21:59:02;;;;;;;60.42;23.02;;;;;;;8.57;69.00;98413.88;10386040;28;20248;-63
2021/11/03 22:04:04;;;;;;;62.72;24.30;;;;;;;8.53;69.29;98411.59;10385900;28;20061;-62
2021/11/03 22:09:06;;;;;;;182.10;28.20;;;;;;;8.32;69.46;98406.25;10386320;28;20433;-62
2021/11/03 22:14:07;;;;;;;312.92;30.30;;;;;;;8.17;70.08;98414.38;10384504;28;20057;-62
2021/11/03 22:19:10;;;;;;;751.95;39.30;;;;;;;8.29;70.10;98410.84;10385312;28;20486;-62
2021/11/03 22:24:12;;;;;;;571.05;36.28;;;;;;;8.41;69.99;98422.94;10384434;28;20524;-62
2021/11/03 22:29:14;;;;;;;229.27;28.58;;;;;;;8.43;69.71;98423.66;10384098;28;20059;-62
2021/11/03 22:34:16;;;;;;;50.20;21.63;;;;;;;8.39;69.80;98424.84;10384370;28;20049;-62
2021/11/03 22:39:18;;;;;;;51.65;25.00;;;;;;;8.34;70.04;98416.56;10385189;28;20050;-62
2021/11/03 22:44:20;;;;;;;25.83;16.05;;;;;;;8.34;70.12;98416.56;10383733;28;20057;-62
2021/11/03 22:49:22;;;;;;;25.58;15.35;;;;;;;8.41;70.01;98417.75;10384119;28;20076;-62
2021/11/03 22:54:24;;;;;;;27.90;15.90;;;;;;;8.61;69.62;98430.09;10383771;28;20054;-62
2021/11/03 22:59:25;;;;;;;39.80;19.65;;;;;;;8.72;69.42;98432.75;10382112;28;20053;-63
2021/11/03 23:04:27;;;;;;;50.47;20.52;;;;;;;8.78;69.04;98446.16;10383363;28;20067;-63
2021/11/03 23:09:29;;;;;;;43.92;19.88;;;;;;;8.74;69.00;98449.94;10383211;28;20049;-61
2021/11/03 23:14:31;;;;;;;43.03;20.25;;;;;;;8.74;69.04;98446.50;10383645;28;20164;-61
2021/11/03 23:19:32;;;;;;;29.00;16.35;;;;;;;8.69;69.20;98448.59;10383842;28;20375;-63
2021/11/03 23:24:35;;;;;;;36.33;19.33;;;;;;;8.63;69.10;98441.25;10383259;28;20382;-61
2021/11/03 23:29:37;;;;;;;33.03;18.65;;;;;;;8.59;69.51;98443.25;10383674;28;20081;-63